Oyster Creek, Texas
Current Conditions -  °F | °C
As of 12:53 PM on Monday 20 Oct 2014 (Local Time) from KLBX Reporting Station
Scattered Clouds Scattered Clouds  
Wind Chill: 80°   Ceiling: Unl
Heat Index: 82°   Visibility: 10mi
Dew Point: 65°   Wind: 9mph
Humidity: 60%   Direction: 60°ENE
Pressure: 30.03"   Gusts: NA
Location:  28.9433°N, 95.4584°W
Report Text: KLBX 201753Z AUTO 06008KT 10SM SCT035 SCT048 27/18 A3003 RMK AO2 SLP167 T02670183 10272 20161 58007
Loading
Personal Weather Stations






























Interactive Weather Map
Tropical Storm Tracking
New forecast layout! Learn more

10-Day Weather Forecast

Advertisements
Track Severe Weather on mobile